Marten — 5BNU3 — position and weather

sailwx.info

Track history (hours):
 
Tides and Currents Weather Stations Pressure Air Temp Water Temp Dewpoint Dewpoint Depression Visibility Wind Speed Wind Dir Waves Ship Positions

Marten

Last reported at 2017-Oct-18 01:58 UTC. Time now 2017-Oct-18 07:43 UTC.
Position N 39°24' W 009°43'.

Length 90 m; draft 3.3 m.

Type: Ship. MMSI: 212376000.

Date/timePositionNaut miles runAvg speedWind from/ knotsBaromVisibWave heightAir tempDewpointWater temp
2017-Oct-18 01:58N 39°24' W 009°43'510.9
2017-Oct-18 01:30N 39°19' W 009°43'511.0
2017-Oct-18 01:00N 39°14' W 009°45'611.7
2017-Oct-18 00:30N 39°08' W 009°46'611.4
2017-Oct-18 00:00N 39°03' W 009°47'511.0
2017-Oct-17 23:30N 38°57' W 009°49'611.6
2017-Oct-17 23:00N 38°52' W 009°50'611.3
2017-Oct-17 22:30N 38°46' W 009°50'611.2
2017-Oct-17 22:00N 38°40' W 009°49'510.3
2017-Oct-17 21:30N 38°36' W 009°47'510.5
2017-Oct-17 21:00N 38°31' W 009°43'510.8
2017-Oct-17 20:30N 38°27' W 009°39'510.9
2017-Oct-17 20:00N 38°22' W 009°35'510.6
2017-Oct-17 19:30N 38°18' W 009°31'510.8
2017-Oct-17 19:00N 38°13' W 009°28'510.7
2017-Oct-17 18:30N 38°09' W 009°24'510.5
2017-Oct-17 18:00N 38°05' W 009°20'510.4
2017-Oct-17 17:30N 38°00' W 009°16'510.6
2017-Oct-17 17:00N 37°56' W 009°13'4 8.7
2017-Oct-17 16:30N 37°52' W 009°10'4 8.6
2017-Oct-17 16:00N 37°48' W 009°10'4 8.7
2017-Oct-17 15:30N 37°44' W 009°11'4 8.9
2017-Oct-17 15:00N 37°39' W 009°12'57 7.1
2017-Oct-17 07:00N 36°43' W 008°59'6 8.3
2017-Oct-17 06:15N 36°43' W 008°51'2 7.8
2017-Oct-17 06:00N 36°43' W 008°49'10 8.1
2017-Oct-17 04:46N 36°44' W 008°36'3 8.6
2017-Oct-17 04:28N 36°44' W 008°33'4 8.3
2017-Oct-17 04:00N 36°44' W 008°28'6 8.1
2017-Oct-17 03:12N 36°44' W 008°20'5 8.0
2017-Oct-17 02:32N 36°44' W 008°14'0 8.0
2017-Oct-17 02:30N 36°44' W 008°13'4 8.1
2017-Oct-17 02:00N 36°44' W 008°08'4 8.1
2017-Oct-17 01:30N 36°44' W 008°03'  
2017-Oct-14 02:09N 36°41' W 007°20'210.6
2017-Oct-14 01:59N 36°41' W 007°22'510.6
2017-Oct-14 01:30N 36°41' W 007°28'1310.5
2017-Oct-14 00:16N 36°40' W 007°44'710.5
2017-Oct-13 23:39N 36°39' W 007°53'510.5
2017-Oct-13 23:08N 36°39' W 007°59'311.0
2017-Oct-13 22:54N 36°38' W 008°03'410.6
2017-Oct-13 22:28N 36°38' W 008°08'1611.0
2017-Oct-13 21:03N 36°36' W 008°27'110.0
2017-Oct-13 20:55N 36°36' W 008°29'20 9.8
2017-Oct-13 18:53N 36°33' W 008°54'410.5
2017-Oct-13 18:30N 36°32' W 008°59'1110.9
2017-Oct-13 17:31N 36°34' W 009°12'011.1
2017-Oct-13 17:30N 36°34' W 009°12'510.5
2017-Oct-13 17:00N 36°36' W 009°18'610.4
2017-Oct-13 16:26N 36°40' W 009°23'510.2
2017-Oct-13 16:00N 36°43' W 009°27'510.4
2017-Oct-13 15:30N 36°47' W 009°31'510.5
2017-Oct-13 14:59N 36°52' W 009°34'8710.6
2017-Oct-13 06:45N 38°17' W 009°59'4710.4
2017-Oct-13 02:15N 39°04' W 010°06'11310.3
2017-Oct-12 15:14N 40°57' W 010°06'410.5
2017-Oct-12 14:53N 41°01' W 010°05'43210.0
2017-Oct-10 19:34N 47°47' W 006°38'141 9.5
2017-Oct-10 04:37N 49°29' W 004°10'110.2
2017-Oct-10 04:30N 49°30' W 004°09'1010.8
2017-Oct-10 03:34N 49°35' W 003°55'211.5
2017-Oct-10 03:21N 49°36' W 003°52'411.6
2017-Oct-10 03:00N 49°38' W 003°47'1311.8
2017-Oct-10 01:55N 49°45' W 003°30'511.5
2017-Oct-10 01:29N 49°47' W 003°23'511.1
2017-Oct-10 01:00N 49°50' W 003°16'610.6
2017-Oct-10 00:29N 49°53' W 003°08'510.1
2017-Oct-10 00:00N 49°55' W 003°02'5 9.5
2017-Oct-09 23:30N 49°57' W 002°55'5 8.9
2017-Oct-09 23:00N 49°59' W 002°49'6 8.2
2017-Oct-09 22:19N 50°00' W 002°40'9010.9
2017-Oct-09 14:02N 50°27' W 000°25'011.0
2017-Oct-09 14:00N 50°27' W 000°25'510.7
2017-Oct-09 13:30N 50°29' W 000°17'510.2
2017-Oct-09 13:00N 50°30' W 000°09'5 9.3
2017-Oct-09 12:30N 50°31' W 000°02'4 8.7
2017-Oct-09 12:00N 50°33' E 000°05'4 8.2
2017-Oct-09 11:30N 50°34' E 000°11'4 7.8
2017-Oct-09 11:00N 50°35' E 000°17'4 7.7
2017-Oct-09 10:30N 50°36' E 000°23'4 8.1
2017-Oct-09 10:00N 50°37' E 000°29'5 9.0
2017-Oct-09 09:30N 50°39' E 000°35'510.0
2017-Oct-09 09:00N 50°41' E 000°42'511.0
2017-Oct-09 08:30N 50°45' E 000°49'611.7
2017-Oct-09 08:00N 50°48' E 000°56'712.0
2017-Oct-09 07:26N 50°52' E 001°05'512.1
2017-Oct-09 07:00N 50°56' E 001°11'611.9
2017-Oct-09 06:30N 50°59' E 001°18'611.3
2017-Oct-09 06:00N 51°03' E 001°25'510.4
2017-Oct-09 05:30N 51°07' E 001°31'5 9.0
2017-Oct-09 05:00N 51°09' E 001°37'4 8.4
2017-Oct-09 04:30N 51°12' E 001°42'4 8.3
2017-Oct-09 04:00N 51°15' E 001°46'4 8.1
2017-Oct-09 03:30N 51°19' E 001°49'4 7.9
2017-Oct-09 03:00N 51°23' E 001°52'4 8.4
2017-Oct-09 02:30N 51°27' E 001°54'4 8.8
2017-Oct-09 02:00N 51°31' E 001°56'5 9.3
2017-Oct-09 01:30N 51°35' E 001°59'510.3
2017-Oct-09 01:00N 51°40' E 002°03'2111.7
2017-Oct-08 23:13N 52°00' E 002°09'312.6
2017-Oct-08 23:00N 52°03' E 002°09'612.7
2017-Oct-08 22:30N 52°09' E 002°07'3612.6
2017-Oct-08 19:39N 52°44' E 001°55'1311.6
2017-Oct-08 18:34N 52°53' E 001°41'110.8
2017-Oct-08 18:30N 52°54' E 001°40'1010.2
2017-Oct-08 17:29N 53°01' E 001°28'5 9.4
2017-Oct-08 17:00N 53°05' E 001°24'5 9.0
2017-Oct-08 16:30N 53°09' E 001°20'4 8.8
2017-Oct-08 16:00N 53°13' E 001°16'4 8.7
2017-Oct-08 15:30N 53°16' E 001°11'55 8.4
2017-Oct-08 08:57N 53°59' E 000°13'4 9.9
2017-Oct-08 08:30N 54°03' E 000°09'510.3
2017-Oct-08 08:00N 54°07' E 000°04'510.7
2017-Oct-08 07:30N 54°11' W 000°01'611.2
2017-Oct-08 07:00N 54°16' W 000°07'611.5
2017-Oct-08 06:30N 54°21' W 000°12'611.7
2017-Oct-08 06:00N 54°26' W 000°17'612.1
2017-Oct-08 05:30N 54°31' W 000°22'612.1
2017-Oct-08 05:00N 54°36' W 000°27'2011.9
2017-Oct-08 03:19N 54°54' W 000°45'  
Track history (hours):
 
Tides and Currents Weather Stations Pressure Air Temp Water Temp Dewpoint Dewpoint Depression Visibility Wind Speed Wind Dir Waves Ship Positions

Marten

Last reported at 2017-Oct-18 01:58 UTC. Time now 2017-Oct-18 07:43 UTC.
Position N 39°24' W 009°43'.

Length 90 m; draft 3.3 m.

Type: Ship. MMSI: 212376000.

Date/timePositionNaut miles runAvg speedWind from/ knotsBaromVisibWave heightAir tempDewpointWater temp
2017-Oct-18 01:58N 39°24' W 009°43'510.9
2017-Oct-18 01:30N 39°19' W 009°43'511.0
2017-Oct-18 01:00N 39°14' W 009°45'611.7
2017-Oct-18 00:30N 39°08' W 009°46'611.4
2017-Oct-18 00:00N 39°03' W 009°47'511.0
2017-Oct-17 23:30N 38°57' W 009°49'611.6
2017-Oct-17 23:00N 38°52' W 009°50'611.3
2017-Oct-17 22:30N 38°46' W 009°50'611.2
2017-Oct-17 22:00N 38°40' W 009°49'510.3
2017-Oct-17 21:30N 38°36' W 009°47'510.5
2017-Oct-17 21:00N 38°31' W 009°43'510.8
2017-Oct-17 20:30N 38°27' W 009°39'510.9
2017-Oct-17 20:00N 38°22' W 009°35'510.6
2017-Oct-17 19:30N 38°18' W 009°31'510.8
2017-Oct-17 19:00N 38°13' W 009°28'510.7
2017-Oct-17 18:30N 38°09' W 009°24'510.5
2017-Oct-17 18:00N 38°05' W 009°20'510.4
2017-Oct-17 17:30N 38°00' W 009°16'510.6
2017-Oct-17 17:00N 37°56' W 009°13'4 8.7
2017-Oct-17 16:30N 37°52' W 009°10'4 8.6
2017-Oct-17 16:00N 37°48' W 009°10'4 8.7
2017-Oct-17 15:30N 37°44' W 009°11'4 8.9
2017-Oct-17 15:00N 37°39' W 009°12'57 7.1
2017-Oct-17 07:00N 36°43' W 008°59'6 8.3
2017-Oct-17 06:15N 36°43' W 008°51'2 7.8
2017-Oct-17 06:00N 36°43' W 008°49'10 8.1
2017-Oct-17 04:46N 36°44' W 008°36'3 8.6
2017-Oct-17 04:28N 36°44' W 008°33'4 8.3
2017-Oct-17 04:00N 36°44' W 008°28'6 8.1
2017-Oct-17 03:12N 36°44' W 008°20'5 8.0
2017-Oct-17 02:32N 36°44' W 008°14'0 8.0
2017-Oct-17 02:30N 36°44' W 008°13'4 8.1
2017-Oct-17 02:00N 36°44' W 008°08'4 8.1
2017-Oct-17 01:30N 36°44' W 008°03'  
2017-Oct-14 02:09N 36°41' W 007°20'210.6
2017-Oct-14 01:59N 36°41' W 007°22'510.6
2017-Oct-14 01:30N 36°41' W 007°28'1310.5
2017-Oct-14 00:16N 36°40' W 007°44'710.5
2017-Oct-13 23:39N 36°39' W 007°53'510.5
2017-Oct-13 23:08N 36°39' W 007°59'311.0
2017-Oct-13 22:54N 36°38' W 008°03'410.6
2017-Oct-13 22:28N 36°38' W 008°08'1611.0
2017-Oct-13 21:03N 36°36' W 008°27'110.0
2017-Oct-13 20:55N 36°36' W 008°29'20 9.8
2017-Oct-13 18:53N 36°33' W 008°54'410.5
2017-Oct-13 18:30N 36°32' W 008°59'1110.9
2017-Oct-13 17:31N 36°34' W 009°12'011.1
2017-Oct-13 17:30N 36°34' W 009°12'510.5
2017-Oct-13 17:00N 36°36' W 009°18'610.4
2017-Oct-13 16:26N 36°40' W 009°23'510.2
2017-Oct-13 16:00N 36°43' W 009°27'510.4
2017-Oct-13 15:30N 36°47' W 009°31'510.5
2017-Oct-13 14:59N 36°52' W 009°34'8710.6
2017-Oct-13 06:45N 38°17' W 009°59'4710.4
2017-Oct-13 02:15N 39°04' W 010°06'11310.3
2017-Oct-12 15:14N 40°57' W 010°06'410.5
2017-Oct-12 14:53N 41°01' W 010°05'43210.0
2017-Oct-10 19:34N 47°47' W 006°38'141 9.5
2017-Oct-10 04:37N 49°29' W 004°10'110.2
2017-Oct-10 04:30N 49°30' W 004°09'1010.8
2017-Oct-10 03:34N 49°35' W 003°55'211.5
2017-Oct-10 03:21N 49°36' W 003°52'411.6
2017-Oct-10 03:00N 49°38' W 003°47'1311.8
2017-Oct-10 01:55N 49°45' W 003°30'511.5
2017-Oct-10 01:29N 49°47' W 003°23'511.1
2017-Oct-10 01:00N 49°50' W 003°16'610.6
2017-Oct-10 00:29N 49°53' W 003°08'510.1
2017-Oct-10 00:00N 49°55' W 003°02'5 9.5
2017-Oct-09 23:30N 49°57' W 002°55'5 8.9
2017-Oct-09 23:00N 49°59' W 002°49'6 8.2
2017-Oct-09 22:19N 50°00' W 002°40'9010.9
2017-Oct-09 14:02N 50°27' W 000°25'011.0
2017-Oct-09 14:00N 50°27' W 000°25'510.7
2017-Oct-09 13:30N 50°29' W 000°17'510.2
2017-Oct-09 13:00N 50°30' W 000°09'5 9.3
2017-Oct-09 12:30N 50°31' W 000°02'4 8.7
2017-Oct-09 12:00N 50°33' E 000°05'4 8.2
2017-Oct-09 11:30N 50°34' E 000°11'4 7.8
2017-Oct-09 11:00N 50°35' E 000°17'4 7.7
2017-Oct-09 10:30N 50°36' E 000°23'4 8.1
2017-Oct-09 10:00N 50°37' E 000°29'5 9.0
2017-Oct-09 09:30N 50°39' E 000°35'510.0
2017-Oct-09 09:00N 50°41' E 000°42'511.0
2017-Oct-09 08:30N 50°45' E 000°49'611.7
2017-Oct-09 08:00N 50°48' E 000°56'712.0
2017-Oct-09 07:26N 50°52' E 001°05'512.1
2017-Oct-09 07:00N 50°56' E 001°11'611.9
2017-Oct-09 06:30N 50°59' E 001°18'611.3
2017-Oct-09 06:00N 51°03' E 001°25'510.4
2017-Oct-09 05:30N 51°07' E 001°31'5 9.0
2017-Oct-09 05:00N 51°09' E 001°37'4 8.4
2017-Oct-09 04:30N 51°12' E 001°42'4 8.3
2017-Oct-09 04:00N 51°15' E 001°46'4 8.1
2017-Oct-09 03:30N 51°19' E 001°49'4 7.9
2017-Oct-09 03:00N 51°23' E 001°52'4 8.4
2017-Oct-09 02:30N 51°27' E 001°54'4 8.8
2017-Oct-09 02:00N 51°31' E 001°56'5 9.3
2017-Oct-09 01:30N 51°35' E 001°59'510.3
2017-Oct-09 01:00N 51°40' E 002°03'2111.7
2017-Oct-08 23:13N 52°00' E 002°09'312.6
2017-Oct-08 23:00N 52°03' E 002°09'612.7
2017-Oct-08 22:30N 52°09' E 002°07'3612.6
2017-Oct-08 19:39N 52°44' E 001°55'1311.6
2017-Oct-08 18:34N 52°53' E 001°41'110.8
2017-Oct-08 18:30N 52°54' E 001°40'1010.2
2017-Oct-08 17:29N 53°01' E 001°28'5 9.4
2017-Oct-08 17:00N 53°05' E 001°24'5 9.0
2017-Oct-08 16:30N 53°09' E 001°20'4 8.8
2017-Oct-08 16:00N 53°13' E 001°16'4 8.7
2017-Oct-08 15:30N 53°16' E 001°11'55 8.4
2017-Oct-08 08:57N 53°59' E 000°13'4 9.9
2017-Oct-08 08:30N 54°03' E 000°09'510.3
2017-Oct-08 08:00N 54°07' E 000°04'510.7
2017-Oct-08 07:30N 54°11' W 000°01'611.2
2017-Oct-08 07:00N 54°16' W 000°07'611.5
2017-Oct-08 06:30N 54°21' W 000°12'611.7
2017-Oct-08 06:00N 54°26' W 000°17'612.1
2017-Oct-08 05:30N 54°31' W 000°22'612.1
2017-Oct-08 05:00N 54°36' W 000°27'2011.9
2017-Oct-08 03:19N 54°54' W 000°45'  

Dump ship's entire track history